Flight Track Log - Related Links

Times and Time Zones

All times are in EDT time to prevent confusion due to time zone crossing. See the FDX60 flight status page for this flight to view local times or setup timezone preferences in your user account.

Time Position Orientation Groundspeed Altitude Reporting Facility
EDT Latitude Longitude Course Direction KTS MPH feet Rate Location/Type
Mon 01:27:47 PM 34.4460 135.2720 49° Northeast 192 221 900  Level FlightAware
Mon 01:28:17 PM 34.4660 135.2950 43° Northeast 202 232 2,100 2,291 Climbing FlightAware
Mon 01:28:42 PM 34.4860 135.3100 32° Northeast 210 242 3,000 1,636 Climbing FlightAware
Mon 01:29:12 PM 34.5160 135.2970 340° North 243 280 3,600 1,467 Climbing FlightAware
Mon 01:29:27 PM 34.5300 135.2870 330° Northwest 253 291 4,100 2,200 Climbing FlightAware
Mon 01:29:42 PM 34.5400 135.2680 303° West 261 300 4,700 2,550 Climbing FlightAware
Mon 01:30:07 PM 34.5490 135.2330 287° West 269 310 5,800 2,700 Climbing FlightAware
Mon 01:30:22 PM 34.5470 135.2100 264° West 273 314 6,500 2,800 Climbing FlightAware
Mon 01:30:37 PM 34.5370 135.1900 239° Southwest 280 322 7,200 2,800 Climbing FlightAware
Mon 01:30:52 PM 34.5210 135.1770 214° Southwest 282 325 7,900 2,850 Climbing FlightAware
Mon 01:31:17 PM 34.4930 135.1560 212° Southwest 284 327 9,100 2,229 Climbing FlightAware
Mon 01:32:02 PM 34.4400 135.1190 210° Southwest 313 360 10,500 1,553 Climbing FlightAware
Mon 01:32:42 PM 34.3860 135.0810 210° Southwest 356 410 11,300 1,500 Climbing FlightAware
Mon 01:33:22 PM 34.3260 135.0390 210° Southwest 381 438 12,500 2,080 Climbing FlightAware
Mon 01:33:57 PM 34.2670 135.0140 199° South 406 467 13,900 2,291 Climbing FlightAware
Mon 01:34:17 PM 34.2290 135.0190 174° South 417 480 14,600 2,215 Climbing FlightAware
Mon 01:35:02 PM 34.1410 135.0440 167° South 435 501 16,300 2,240 Climbing FlightAware
Mon 01:35:32 PM 34.0890 135.0830 148° Southeast 452 520 17,400 1,964 Climbing FlightAware
Mon 01:35:57 PM 34.0600 135.1370 123° Southeast 465 535 18,100 1,650 Climbing FlightAware
Mon 01:36:12 PM 34.0530 135.1750 103° East 471 542 18,500 1,600 Climbing FlightAware
Mon 01:36:42 PM 34.0630 135.2520 81° East 470 541 19,300 1,714 Climbing FlightAware
Mon 01:37:22 PM 34.1120 135.3360 55° Northeast 464 534 20,500 1,650 Climbing FlightAware
Mon 01:38:02 PM 34.1640 135.4220 54° Northeast 482 555 21,500 1,553 Climbing FlightAware
Mon 01:38:47 PM 34.2090 135.5340 64° Northeast 503 579 22,700 1,624 Climbing FlightAware
Mon 01:39:27 PM 34.2480 135.6370 65° Northeast 514 592 23,800 1,725 Climbing FlightAware
Mon 01:40:07 PM 34.2860 135.7420 66° East 517 595 25,000 1,694 Climbing FlightAware
Mon 01:40:52 PM 34.3310 135.8620 66° East 525 604 26,200 1,553 Climbing FlightAware
Mon 01:41:32 PM 34.3710 135.9690 66° East 530 610 27,200 1,341 Climbing FlightAware
Mon 01:42:17 PM 34.4170 136.0930 66° East 538 619 28,100 1,200 Climbing FlightAware
Mon 01:42:57 PM 34.4580 136.2030 66° East 548 631 28,900 1,200 Climbing FlightAware
Mon 01:43:37 PM 34.5000 136.3170 66° East 555 639 29,700 825 Climbing FlightAware
Mon 01:44:17 PM 34.5420 136.4310 66° East 557 641 30,000 212 Climbing FlightAware
Mon 01:45:02 PM 34.5890 136.5590 66° East 557 641 30,000  Level FlightAware
Mon 01:45:42 PM 34.6310 136.6740 66° East 558 642 30,000  Level FlightAware
Mon 01:46:27 PM 34.6770 136.8000 66° East 558 642 30,000  Level FlightAware
Mon 01:47:07 PM 34.7200 136.9180 66° East 557 641 30,000  Level FlightAware
Mon 01:47:52 PM 34.7660 137.0470 67° East 556 640 30,000  Level FlightAware
Mon 01:48:32 PM 34.8080 137.1620 66° East 553 636 30,000  Level FlightAware
Mon 01:49:02 PM 34.8390 137.2480 66° East 553 636 30,000  Level FlightAware
Mon 01:49:42 PM 34.8800 137.3630 66° East 554 638 30,000  Level FlightAware
Mon 01:50:22 PM 34.9200 137.4770 67° East 554 638 30,000  Level FlightAware
Mon 01:51:07 PM 34.9630 137.5980 67° East 553 636 30,000  Level FlightAware
Mon 01:51:47 PM 35.0070 137.7220 67° East 549 632 30,000  Level FlightAware
Mon 01:52:32 PM 35.0520 137.8500 67° East 548 631 30,000  Level FlightAware
Mon 01:53:12 PM 35.0920 137.9640 67° East 549 632 30,000  Level FlightAware
Mon 01:53:52 PM 35.1320 138.0790 67° East 550 633 30,000  Level FlightAware
Mon 01:54:37 PM 35.1780 138.2100 67° East 549 632 30,000  Level FlightAware
Mon 01:55:17 PM 35.2180 138.3240 67° East 553 636 30,000  Level FlightAware
Mon 01:56:02 PM 35.2630 138.4540 67° East 551 634 30,000  Level FlightAware
Mon 01:56:42 PM 35.3010 138.5670 68° East 553 636 30,000  Level FlightAware
Mon 01:57:22 PM 35.3420 138.6860 67° East 553 636 30,000  Level FlightAware
Mon 01:58:07 PM 35.3860 138.8140 67° East 552 635 30,000  Level FlightAware
Mon 01:58:47 PM 35.4250 138.9310 68° East 553 636 30,000  Level FlightAware
Mon 01:59:32 PM 35.4700 139.0620 67° East 553 636 30,000  Level FlightAware
Mon 02:00:12 PM 35.5090 139.1770 67° East 552 635 30,000  Level FlightAware
Mon 02:00:52 PM 35.5470 139.2920 68° East 551 634 30,000  Level FlightAware
Mon 02:01:37 PM 35.5910 139.4230 68° East 551 634 30,000  Level FlightAware
Mon 02:02:17 PM 35.6290 139.5370 68° East 549 632 30,000  Level FlightAware
Mon 02:03:02 PM 35.6730 139.6680 68° East 546 628 30,000  Level FlightAware
Mon 02:03:42 PM 35.7090 139.7800 68° East 544 626 30,000  Level FlightAware
Mon 02:04:22 PM 35.7480 139.8970 68° East 544 626 30,000  Level FlightAware
Mon 02:05:07 PM 35.7910 140.0270 68° East 544 626 30,000  Level FlightAware
Mon 02:05:47 PM 35.8280 140.1420 68° East 545 627 30,000  Level FlightAware
Mon 02:06:27 PM 35.8670 140.2550 67° East 542 624 30,000  Level FlightAware
Mon 02:07:12 PM 35.9140 140.3680 63° Northeast 532 612 30,000  Level FlightAware
Mon 02:07:52 PM 35.9650 140.4720 59° Northeast 523 602 30,000  Level FlightAware
Mon 02:08:32 PM 36.0180 140.5780 58° Northeast 527 606 30,000  Level FlightAware
Mon 02:09:32 PM 36.0930 140.7270 58° Northeast 524 603 30,000  Level FlightAware
Mon 02:10:17 PM 36.1510 140.8440 58° Northeast 524 603 30,000  Level FlightAware
Mon 02:10:47 PM 36.1910 140.9220 58° Northeast 523 602 30,000  Level FlightAware
Mon 02:11:37 PM 36.2530 141.0460 58° Northeast 519 597 30,000  Level FlightAware
Mon 02:12:22 PM 36.3120 141.1620 58° Northeast 519 597 30,000  Level FlightAware
Mon 02:12:57 PM 36.3580 141.2550 58° Northeast 516 594 30,000  Level FlightAware
Mon 02:13:42 PM 36.4110 141.3600 58° Northeast 515 593 30,000  Level FlightAware
Mon 02:14:22 PM 36.4590 141.4580 59° Northeast 515 593 30,000  Level FlightAware
Mon 02:15:02 PM 36.5120 141.5640 58° Northeast 514 592 30,000  Level FlightAware
Mon 02:15:52 PM 36.5720 141.6860 58° Northeast 512 589 30,000  Level FlightAware
Mon 02:16:27 PM 36.6190 141.7810 58° Northeast 512 589 30,000  Level FlightAware
Mon 02:17:12 PM 36.6680 141.8820 59° Northeast 509 586 30,000  Level FlightAware
Mon 02:17:57 PM 36.7260 142.0010 59° Northeast 507 583 30,000  Level FlightAware
Mon 02:18:32 PM 36.7690 142.0890 59° Northeast 506 582 30,000  Level FlightAware
Mon 02:19:22 PM 36.8310 142.2200 59° Northeast 506 582 30,000  Level FlightAware
Mon 02:20:02 PM 36.8800 142.3220 59° Northeast 505 581 30,000  Level FlightAware
Mon 02:20:47 PM 36.9290 142.4240 59° Northeast 503 579 30,000  Level FlightAware
Mon 02:21:22 PM 36.9700 142.5120 60° Northeast 503 579 30,000  Level FlightAware
Mon 02:22:07 PM 37.0250 142.6260 59° Northeast 507 583 30,000  Level FlightAware
Mon 02:22:52 PM 37.0730 142.7270 59° Northeast 507 583 30,000  Level FlightAware
Mon 02:23:32 PM 37.1140 142.8130 59° Northeast 507 583 30,000  Level FlightAware
Mon 02:24:12 PM 37.1550 142.8980 59° Northeast 507 583 30,000  Level FlightAware
Mon 02:24:47 PM 37.2120 143.0250 61° Northeast 30,000  Level FlightAware
Mon 02:25:37 PM 37.2710 143.1540 60° Northeast 497 572 30,000  Level FlightAware
Mon 02:26:17 PM 37.3100 143.2390 60° Northeast 497 572 30,000  Level FlightAware
Mon 02:27:07 PM 37.3590 143.3450 60° Northeast 497 572 30,000  Level FlightAware
Mon 02:27:57 PM 37.4270 143.4890 59° Northeast 498 573 30,000  Level FlightAware
Mon 02:28:37 PM 37.4660 143.5750 60° Northeast 498 573 30,000  Level FlightAware
Mon 02:29:27 PM 37.5150 143.6820 60° Northeast 498 573 30,000  Level FlightAware
Mon 02:30:07 PM 37.5540 143.7670 60° Northeast 498 573 30,000  Level FlightAware
Mon 02:30:47 PM 37.5930 143.8530 60° Northeast 498 573 30,000  Level FlightAware
Mon 02:31:27 PM 37.6330 143.9390 60° Northeast 498 573 30,000  Level FlightAware
Mon 02:32:07 PM 37.6720 144.0240 60° Northeast 498 573 30,000  Level FlightAware
Mon 02:32:47 PM 37.7110 144.1100 60° Northeast 498 573 30,000  Level FlightAware
Mon 02:33:37 PM 37.7600 144.2170 60° Northeast 498 573 30,000  Level FlightAware
Mon 02:34:17 PM 37.7990 144.3030 60° Northeast 498 573 30,000  Level FlightAware
Mon 02:34:57 PM 37.8380 144.3890 60° Northeast 498 573 30,000  Level FlightAware
Mon 02:35:37 PM 37.8770 144.4750 60° Northeast 498 573 30,000  Level FlightAware
Mon 02:36:27 PM 37.9260 144.5820 60° Northeast 498 573 30,000  Level FlightAware
Mon 02:37:07 PM 37.9650 144.6680 60° Northeast 498 573 30,000 20 Level FlightAware
Mon 02:39:00 PM 38.1656 144.8972 42° Northeast  Level Estimated
Mon 02:40:00 PM 38.2720 145.0195 42° Northeast  Level Estimated
Mon 02:41:00 PM 38.3782 145.1421 42° Northeast  Level Estimated
Mon 02:42:00 PM 38.4843 145.2650 42° Northeast  Level Estimated
Mon 02:43:00 PM 38.5903 145.3884 42° Northeast  Level Estimated
Mon 02:44:00 PM 38.6961 145.5121 42° Northeast  Level Estimated
Mon 02:45:00 PM 38.8018 145.6361 42° Northeast  Level Estimated
Mon 02:46:00 PM 38.9074 145.7605 43° Northeast  Level Estimated
Mon 02:47:00 PM 39.0129 145.8853 43° Northeast  Level Estimated
Mon 02:48:00 PM 39.1182 146.0105 43° Northeast  Level Estimated
Mon 02:49:00 PM 39.2233 146.1360 43° Northeast  Level Estimated
Mon 02:50:00 PM 39.3284 146.2619 43° Northeast  Level Estimated
Mon 02:51:00 PM 39.4333 146.3882 43° Northeast  Level Estimated
Mon 02:52:00 PM 39.5381 146.5149 43° Northeast  Level Estimated
Mon 02:53:00 PM 39.6427 146.6419 43° Northeast  Level Estimated
Mon 02:54:00 PM 39.7472 146.7694 43° Northeast  Level Estimated
Mon 02:55:00 PM 39.8515 146.8972 43° Northeast  Level Estimated
Mon 02:56:00 PM 39.9557 147.0254 43° Northeast  Level Estimated
Mon 02:57:00 PM 40.0598 147.1540 43° Northeast  Level Estimated
Mon 02:58:00 PM 40.1637 147.2830 43° Northeast  Level Estimated
Mon 02:59:00 PM 40.2675 147.4124 44° Northeast  Level Estimated
Mon 03:00:00 PM 40.3712 147.5422 44° Northeast  Level Estimated
Mon 03:01:00 PM 40.4746 147.6724 44° Northeast  Level Estimated
Mon 03:02:00 PM 40.5780 147.8030 44° Northeast  Level Estimated
Mon 03:03:00 PM 40.6812 147.9340 44° Northeast  Level Estimated
Mon 03:04:00 PM 40.7842 148.0654 44° Northeast  Level Estimated
Mon 03:05:00 PM 40.8871 148.1972 44° Northeast  Level Estimated
Mon 03:06:00 PM 40.9899 148.3294 44° Northeast  Level Estimated
Mon 03:07:00 PM 41.0925 148.4620 44° Northeast  Level Estimated
Mon 03:08:00 PM 41.1949 148.5951 44° Northeast  Level Estimated
Mon 03:09:00 PM 41.2972 148.7285 44° Northeast  Level Estimated
Mon 03:10:00 PM 41.3994 148.8624 44° Northeast  Level Estimated
Mon 03:11:00 PM 41.5014 148.9967 45° Northeast  Level Estimated
Mon 03:12:00 PM 41.6032 149.1315 45° Northeast  Level Estimated
Mon 03:13:00 PM 41.7048 149.2666 45° Northeast  Level Estimated
Mon 03:14:00 PM 41.8064 149.4022 45° Northeast  Level Estimated
Mon 03:15:00 PM 41.9077 149.5382 45° Northeast  Level Estimated
Mon 03:16:00 PM 42.0089 149.6746 45° Northeast  Level Estimated
Mon 03:17:00 PM 42.1099 149.8115 45° Northeast  Level Estimated
Mon 03:18:00 PM 42.2108 149.9488 45° Northeast  Level Estimated
Mon 03:19:00 PM 42.3115 150.0866 45° Northeast  Level Estimated
Mon 03:20:00 PM 42.4120 150.2248 45° Northeast  Level Estimated
Mon 03:21:00 PM 42.5124 150.3634 45° Northeast  Level Estimated
Mon 03:22:00 PM 42.6126 150.5025 46° Northeast  Level Estimated
Mon 03:23:00 PM 42.7126 150.6420 46° Northeast  Level Estimated
Mon 03:24:00 PM 42.8125 150.7820 46° Northeast  Level Estimated
Mon 03:25:00 PM 42.9122 150.9224 46° Northeast  Level Estimated
Mon 03:26:00 PM 43.0117 151.0633 46° Northeast  Level Estimated
Mon 03:27:00 PM 43.1110 151.2047 46° Northeast  Level Estimated
Mon 03:28:00 PM 43.2102 151.3465 46° Northeast  Level Estimated
Mon 03:29:00 PM 43.3092 151.4887 46° Northeast  Level Estimated
Mon 03:30:00 PM 43.4080 151.6315 46° Northeast  Level Estimated
Mon 03:31:00 PM 43.5066 151.7747 46° Northeast  Level Estimated
Mon 03:32:00 PM 43.6051 151.9183 47° Northeast  Level Estimated
Mon 03:33:00 PM 43.7034 152.0625 47° Northeast  Level Estimated
Mon 03:34:00 PM 43.8015 152.2071 47° Northeast  Level Estimated
Mon 03:35:00 PM 43.8994 152.3522 47° Northeast  Level Estimated
Mon 03:36:00 PM 43.9971 152.4977 47° Northeast  Level Estimated
Mon 03:37:00 PM 44.0947 152.6438 47° Northeast  Level Estimated
Mon 03:38:00 PM 44.1920 152.7903 47° Northeast  Level Estimated
Mon 03:39:00 PM 44.2892 152.9373 47° Northeast  Level Estimated
Mon 03:40:00 PM 44.3862 153.0848 47° Northeast  Level Estimated
Mon 03:41:00 PM 44.4830 153.2328 47° Northeast  Level Estimated
Mon 03:42:00 PM 44.5796 153.3812 48° Northeast  Level Estimated
Mon 03:43:00 PM 44.6760 153.5302 48° Northeast  Level Estimated
Mon 03:44:00 PM 44.7722 153.6797 48° Northeast  Level Estimated
Mon 03:45:00 PM 44.8682 153.8296 48° Northeast  Level Estimated
Mon 03:46:00 PM 44.9640 153.9801 48° Northeast  Level Estimated
Mon 03:47:00 PM 45.0597 154.1310 48° Northeast  Level Estimated
Mon 03:48:00 PM 45.1551 154.2825 48° Northeast  Level Estimated
Mon 03:49:00 PM 45.2503 154.4345 48° Northeast  Level Estimated
Mon 03:50:00 PM 45.3453 154.5870 48° Northeast  Level Estimated
Mon 03:51:00 PM 45.4401 154.7400 49° Northeast  Level Estimated
Mon 03:52:00 PM 45.5347 154.8935 49° Northeast  Level Estimated
Mon 03:53:00 PM 45.6291 155.0475 49° Northeast  Level Estimated
Mon 03:54:00 PM 45.7233 155.2021 49° Northeast  Level Estimated
Mon 03:55:00 PM 45.8173 155.3572 49° Northeast  Level Estimated
Mon 03:56:00 PM 45.9111 155.5128 49° Northeast  Level Estimated
Mon 03:57:00 PM 46.0047 155.6689 49° Northeast  Level Estimated
Mon 03:58:00 PM 46.0980 155.8255 49° Northeast  Level Estimated
Mon 03:59:00 PM 46.1911 155.9827 49° Northeast  Level Estimated
Mon 04:00:00 PM 46.2841 156.1404 50° Northeast  Level Estimated
Mon 04:01:00 PM 46.3768 156.2987 50° Northeast  Level Estimated
Mon 04:02:00 PM 46.4692 156.4575 50° Northeast  Level Estimated
Mon 04:03:00 PM 46.5615 156.6168 50° Northeast  Level Estimated
Mon 04:04:00 PM 46.6535 156.7767 50° Northeast  Level Estimated
Mon 04:05:00 PM 46.7454 156.9371 50° Northeast  Level Estimated
Mon 04:06:00 PM 46.8369 157.0980 50° Northeast  Level Estimated
Mon 04:07:00 PM 46.9283 157.2595 50° Northeast  Level Estimated
Mon 04:08:00 PM 47.0195 157.4216 50° Northeast  Level Estimated
Mon 04:09:00 PM 47.1104 157.5842 51° Northeast  Level Estimated
Mon 04:10:00 PM 47.2010 157.7474 51° Northeast  Level Estimated
Mon 04:11:00 PM 47.2915 157.9111 51° Northeast  Level Estimated
Mon 04:12:00 PM 47.3817 158.0754 51° Northeast  Level Estimated
Mon 04:13:00 PM 47.4717 158.2402 51° Northeast  Level Estimated
Mon 04:14:00 PM 47.5614 158.4057 51° Northeast  Level Estimated
Mon 04:15:00 PM 47.6509 158.5717 51° Northeast  Level Estimated
Mon 04:16:00 PM 47.7402 158.7382 51° Northeast  Level Estimated
Mon 04:17:00 PM 47.8292 158.9053 52° Northeast  Level Estimated
Mon 04:17:00 PM 48.2833 160.6833 52° Northeast 556 640 32,000  Level Anchorage Center
Mon 04:18:00 PM 47.9180 159.0730 52° Northeast  Level Estimated
Mon 04:19:00 PM 48.0065 159.2413 52° Northeast  Level Estimated
Mon 04:20:00 PM 48.0948 159.4101 52° Northeast  Level Estimated
Mon 04:20:55 PM 48.6500 161.4500 53° Northeast 557 641 32,000  Level Anchorage Center
Mon 04:21:00 PM 48.1828 159.5796 52° Northeast  Level Estimated
Mon 04:22:00 PM 48.2706 159.7496 52° Northeast  Level Estimated
Mon 04:23:00 PM 48.8331 161.7733 53° Northeast 556 640 32,000  Level FlightAware
Mon 04:24:00 PM 48.9237 161.9572 53° Northeast 556 640 32,000  Level FlightAware
Mon 04:25:00 PM 49.0140 162.1419 53° Northeast 556 640 32,000  Level FlightAware
Mon 04:26:00 PM 49.1040 162.3272 54° Northeast 556 640 32,000  Level FlightAware
Mon 04:27:00 PM 49.1925 162.5519 54° Northeast 557 641 32,000  Level FlightAware
Mon 04:28:00 PM 49.2819 162.7379 54° Northeast 557 641 32,000  Level FlightAware
Mon 04:29:00 PM 49.3710 162.9245 54° Northeast 557 641 32,000  Level FlightAware
Mon 04:30:00 PM 49.4598 163.1119 54° Northeast 557 641 32,000  Level FlightAware
Mon 04:30:32 PM 49.4667 163.2667 54° Northeast 559 643 32,000  Level Anchorage Center
Mon 04:31:00 PM 49.5483 163.2999 54° Northeast 557 641 32,000  Level FlightAware
Mon 04:32:00 PM 49.6364 163.4886 54° Northeast 557 641 32,000  Level FlightAware
Mon 04:33:00 PM 49.7243 163.6780 54° Northeast 557 641 32,000  Level FlightAware
Mon 04:34:00 PM 49.8119 163.8681 55° Northeast 557 641 32,000  Level FlightAware
Mon 04:35:00 PM 49.8991 164.0588 55° Northeast 557 641 32,000  Level FlightAware
Mon 04:36:00 PM 49.9860 164.2503 55° Northeast 557 641 32,000  Level FlightAware
Mon 04:37:00 PM 50.0770 164.5774 55° Northeast 559 643 32,000  Level FlightAware
Mon 04:38:00 PM 50.1630 164.7673 55° Northeast 559 643 32,000  Level FlightAware
Mon 04:39:00 PM 50.2487 164.9580 55° Northeast 559 643 32,000  Level FlightAware
Mon 04:40:00 PM 50.3340 165.1493 55° Northeast 559 643 32,000  Level FlightAware
Mon 04:40:09 PM 50.2500 165.1167 55° Northeast 544 626 32,000  Level Anchorage Center
Mon 04:41:00 PM 50.4191 165.3413 55° Northeast 559 643 32,000  Level FlightAware
Mon 04:42:00 PM 50.5038 165.5340 55° Northeast 559 643 32,000  Level FlightAware
Mon 04:42:29 PM 50.4000 165.5167 55° Northeast 549 632 32,000  Level Anchorage Center
Mon 04:43:00 PM 50.5882 165.7274 56° Northeast 559 643 32,000  Level FlightAware
Mon 04:44:00 PM 50.6723 165.9214 56° Northeast 559 643 32,000  Level FlightAware
Mon 04:45:00 PM 50.7561 166.1162 56° Northeast 559 643 32,000  Level FlightAware
Mon 04:46:00 PM 50.7558 166.2532 55° Northeast 544 626 32,000  Level FlightAware
Mon 04:47:00 PM 50.8390 166.4450 56° Northeast 544 626 32,000  Level FlightAware
Mon 04:48:00 PM 50.9181 166.6878 56° Northeast 549 632 32,000  Level FlightAware
Mon 04:49:00 PM 51.0033 166.8856 56° Northeast 549 632 32,000  Level FlightAware
Mon 04:49:44 PM 51.0000 167.0333 55° Northeast 547 629 32,000  Level Anchorage Center
Mon 04:50:00 PM 51.0881 167.0840 56° Northeast 549 632 32,000  Level FlightAware
Mon 04:51:00 PM 51.1726 167.2832 56° Northeast 549 632 32,000  Level FlightAware
Mon 04:52:00 PM 51.2568 167.4831 56° Northeast 549 632 32,000  Level FlightAware
Mon 04:53:00 PM 51.3407 167.6837 56° Northeast 549 632 32,000  Level FlightAware
Mon 04:54:00 PM 51.4242 167.8851 56° Northeast 549 632 32,000  Level FlightAware
Mon 04:55:00 PM 51.4204 168.0101 56° Northeast 547 629 32,000  Level FlightAware
Mon 04:56:00 PM 51.5035 168.2076 56° Northeast 547 629 32,000  Level FlightAware
Mon 04:57:00 PM 51.5862 168.4058 56° Northeast 547 629 32,000  Level FlightAware
Mon 04:58:00 PM 51.6686 168.6048 56° Northeast 547 629 32,000  Level FlightAware
Mon 04:59:00 PM 51.7507 168.8044 57° Northeast 547 629 32,000 545 Level FlightAware
Mon 04:59:17 PM 51.7333 169.0167 55° Northeast 544 626 32,700 1,818 Climbing Anchorage Center
Mon 04:59:33 PM 51.7167 169.0667 55° Northeast 540 621 33,000 -977 Climbing Anchorage Center
Mon 05:00:00 PM 51.8325 169.0048 57° Northeast 547 629 32,000  Descending FlightAware
Mon 05:00:33 PM 51.7833 169.2500 59° Northeast 540 621 33,000  Climbing Anchorage Center
Mon 05:01:00 PM 51.9139 169.2059 57° Northeast 547 629 32,000  Descending FlightAware
Mon 05:01:33 PM 51.8667 169.4833 60° Northeast 550 633 33,000  Climbing Anchorage Center
Mon 05:02:00 PM 51.9949 169.4078 57° Northeast 547 629 32,000  Descending FlightAware
Mon 05:02:33 PM 51.9500 169.7167 60° Northeast 540 621 33,000  Climbing Anchorage Center
Mon 05:03:00 PM 52.0756 169.6104 57° Northeast 547 629 32,000  Descending FlightAware
Mon 05:03:33 PM 52.0167 169.9000 59° Northeast 540 621 33,000  Climbing Anchorage Center
Mon 05:04:00 PM 52.1560 169.8137 57° Northeast 547 629 32,000  Descending FlightAware
Mon 05:04:33 PM 52.0833 170.1167 63° Northeast 530 610 33,000 645 Climbing Anchorage Center
Mon 05:05:33 PM 52.1500 170.3000 59° Northeast 530 610 33,000  Level Anchorage Center
Mon 05:06:34 PM 52.2333 170.5333 60° Northeast 530 610 33,000  Level Anchorage Center
Mon 05:07:34 PM 52.3000 170.7000 57° Northeast 520 598 33,000  Level Anchorage Center
Mon 05:08:34 PM 52.4000 170.9167 53° Northeast 520 598 33,000  Level Anchorage Center
Mon 05:09:33 PM 52.4667 171.0833 57° Northeast 520 598 33,000  Level Anchorage Center
Mon 05:10:34 PM 52.5667 171.2833 51° Northeast 520 598 33,000  Level Anchorage Center
Mon 05:11:34 PM 52.6500 171.5000 58° Northeast 520 598 33,000  Level Anchorage Center
Mon 05:12:34 PM 52.7167 171.6667 57° Northeast 510 587 33,000  Level Anchorage Center
Mon 05:13:34 PM 52.8167 171.8833 53° Northeast 520 598 33,000  Level Anchorage Center
Mon 05:14:34 PM 52.8833 172.0500 56° Northeast 530 610 33,000  Level Anchorage Center
Mon 05:16:33 PM 53.0500 172.4333 54° Northeast 510 587 33,000  Level Anchorage Center
Mon 05:17:33 PM 53.1500 172.6500 52° Northeast 520 598 33,000  Level Anchorage Center
Mon 05:18:33 PM 53.2167 172.8167 56° Northeast 510 587 33,000  Level Anchorage Center
Mon 05:19:33 PM 53.3000 173.0333 57° Northeast 520 598 33,000  Level Anchorage Center
Mon 05:20:33 PM 53.3833 173.2167 53° Northeast 520 598 33,000  Level Anchorage Center
Mon 05:21:33 PM 53.4667 173.4333 57° Northeast 510 587 33,000  Level Anchorage Center
Mon 05:22:33 PM 53.5333 173.6000 56° Northeast 510 587 33,000  Level Anchorage Center
Mon 05:23:33 PM 53.6167 173.8167 57° Northeast 510 587 33,000  Level Anchorage Center
Mon 05:24:33 PM 53.6833 174.0000 58° Northeast 520 598 33,000  Level Anchorage Center
Mon 05:25:33 PM 53.7667 174.2333 59° Northeast 520 598 33,000  Level Anchorage Center
Mon 05:26:33 PM 53.8333 174.4000 56° Northeast 500 575 33,000  Level Anchorage Center
Mon 05:27:33 PM 53.9167 174.6333 59° Northeast 510 587 33,000  Level Anchorage Center
Mon 05:28:34 PM 54.0000 174.8500 57° Northeast 510 587 33,000  Level Anchorage Center
Mon 05:29:33 PM 54.0667 175.0333 58° Northeast 510 587 33,000  Level Anchorage Center
Mon 05:30:34 PM 54.1500 175.2500 57° Northeast 500 575 33,000  Level Anchorage Center
Mon 05:31:34 PM 54.2000 175.4333 65° Northeast 500 575 33,000  Level Anchorage Center
Mon 05:32:34 PM 54.2833 175.6500 57° Northeast 500 575 33,000  Level Anchorage Center
Mon 05:33:34 PM 54.3500 175.8333 58° Northeast 500 575 33,000  Level Anchorage Center
Mon 05:34:34 PM 54.4333 176.0500 56° Northeast 500 575 33,000  Level Anchorage Center
Mon 05:35:34 PM 54.4833 176.2333 65° Northeast 510 587 33,000  Level Anchorage Center
Mon 05:36:34 PM 54.5667 176.4667 58° Northeast 500 575 33,000  Level Anchorage Center
Mon 05:37:34 PM 54.6333 176.6500 58° Northeast 510 587 33,000  Level Anchorage Center
Mon 05:38:34 PM 54.7000 176.8833 64° Northeast 510 587 33,000  Level Anchorage Center
Mon 05:39:34 PM 54.7833 177.1167 58° Northeast 510 587 33,000  Level Anchorage Center
Mon 05:40:34 PM 54.8500 177.3000 58° Northeast 500 575 33,000  Level Anchorage Center
Mon 05:41:34 PM 54.9167 177.5167 62° Northeast 500 575 33,000  Level Anchorage Center
Mon 05:42:34 PM 54.9833 177.7000 58° Northeast 510 587 33,000  Level Anchorage Center
Mon 05:45:00 PM 55.0867 178.0119 60° Northeast  Level FlightAware
Mon 05:46:53 PM 55.3000 178.6167 61° Northeast 504 580 33,000  Level Anchorage Center
Mon 05:47:17 PM 55.3333 178.7333 61° Northeast 504 580 33,000  Level Anchorage Center
Mon 05:52:00 PM 55.5719 179.5662 61° Northeast  Level FlightAware
Mon 05:53:00 PM 55.7233 -179.9807 62° Northeast 504 580 33,000  Level FlightAware
Mon 05:54:00 PM 55.7869 -179.7639 63° Northeast 504 580 33,000  Level FlightAware
Mon 05:55:00 PM 55.8502 -179.5464 63° Northeast 504 580 33,000  Level FlightAware
Mon 05:56:00 PM 55.9131 -179.3282 63° Northeast 504 580 33,000  Level FlightAware
Mon 05:56:58 PM 55.9167 -179.2833 63° Northeast 486 559 33,000  Level Anchorage Center
Mon 05:57:00 PM 55.9756 -179.1093 63° Northeast 504 580 33,000  Level FlightAware
Mon 05:58:00 PM 56.0377 -178.8897 63° Northeast 504 580 33,000  Level FlightAware
Mon 05:59:00 PM 56.0995 -178.6694 63° Northeast 504 580 33,000  Level FlightAware
Mon 06:00:00 PM 56.1608 -178.4483 64° Northeast 504 580 33,000  Level FlightAware
Mon 06:01:00 PM 56.2217 -178.2266 64° Northeast 504 580 33,000  Level FlightAware
Mon 06:02:00 PM 56.2823 -178.0041 64° Northeast 504 580 33,000  Level FlightAware
Mon 06:03:00 PM 56.2849 -177.9660 64° Northeast 486 559 33,000  Level FlightAware
Mon 06:04:00 PM 56.3449 -177.7440 64° Northeast 486 559 33,000  Level FlightAware
Mon 06:05:00 PM 56.4045 -177.5214 64° Northeast 486 559 33,000  Level FlightAware
Mon 06:06:00 PM 56.4637 -177.2980 64° Northeast 486 559 33,000  Level FlightAware
Mon 06:06:34 PM 56.4833 -177.2333 65° Northeast 498 573 33,000  Level Anchorage Center
Mon 06:07:00 PM 56.5225 -177.0739 65° Northeast 486 559 33,000  Level FlightAware
Mon 06:08:00 PM 56.5808 -176.8491 65° Northeast 486 559 33,000  Level FlightAware
Mon 06:09:00 PM 56.6388 -176.6236 65° Northeast 486 559 33,000  Level FlightAware
Mon 06:10:00 PM 56.6964 -176.3975 65° Northeast 486 559 33,000  Level FlightAware
Mon 06:11:00 PM 56.7536 -176.1706 65° Northeast 486 559 33,000  Level FlightAware
Mon 06:11:06 PM 56.7167 -176.3000 65° Northeast 499 574 33,000  Level Anchorage Center
Mon 06:12:00 PM 56.8103 -175.9431 66° East 486 559 33,000  Level FlightAware
Mon 06:13:00 PM 56.8808 -175.6653 66° East 498 573 33,000  Level FlightAware
Mon 06:14:00 PM 56.9360 -175.4386 66° East 498 573 33,000  Level FlightAware
Mon 06:15:00 PM 56.9907 -175.2112 66° East 498 573 33,000  Level FlightAware
Mon 06:16:00 PM 57.0450 -174.9831 66° East 498 573 33,000  Level FlightAware
Mon 06:16:06 PM 57.0167 -175.0833 66° East 495 570 33,000  Level Anchorage Center
Mon 06:17:00 PM 57.0616 -174.8926 66° East 499 574 33,000  Level FlightAware
Mon 06:17:31 PM 57.0667 -174.7667 68° East 470 541 33,000  Level Anchorage Center
Mon 06:18:00 PM 57.1175 -174.6555 67° East 499 574 33,000  Level FlightAware
Mon 06:18:31 PM 57.1167 -174.5333 68° East 470 541 33,000  Level Anchorage Center
Mon 06:19:00 PM 57.1730 -174.4177 67° East 499 574 33,000  Level FlightAware
Mon 06:19:31 PM 57.1667 -174.3167 67° East 470 541 33,000  Level Anchorage Center
Mon 06:20:00 PM 57.2281 -174.1792 67° East 499 574 33,000  Level FlightAware
Mon 06:20:31 PM 57.2167 -174.1000 67° East 460 529 33,000  Level Anchorage Center
Mon 06:21:00 PM 57.2826 -173.9400 67° East 499 574 33,000  Level FlightAware
Mon 06:21:31 PM 57.2667 -173.8667 68° East 480 552 33,000  Level Anchorage Center
Mon 06:22:00 PM 57.3441 -173.6691 67° East 495 570 33,000  Level FlightAware
Mon 06:22:31 PM 57.3167 -173.6333 68° East 470 541 33,000  Level Anchorage Center
Mon 06:23:00 PM 57.3971 -173.4309 68° East 495 570 33,000  Level FlightAware
Mon 06:23:31 PM 57.3667 -173.4167 67° East 470 541 33,000  Level Anchorage Center
Mon 06:24:31 PM 57.4167 -173.1833 68° East 460 529 33,000  Level Anchorage Center
Mon 06:25:32 PM 57.4667 -172.9667 67° East 460 529 33,000  Level Anchorage Center
Mon 06:26:32 PM 57.5167 -172.7500 67° East 460 529 33,000  Level Anchorage Center
Mon 06:27:32 PM 57.5500 -172.5167 75° East 460 529 33,000  Level Anchorage Center
Mon 06:28:32 PM 57.6000 -172.3000 67° East 460 529 33,000  Level Anchorage Center
Mon 06:29:32 PM 57.6500 -172.0667 68° East 460 529 33,000  Level Anchorage Center
Mon 06:30:32 PM 57.7000 -171.8500 67° East 470 541 33,000  Level Anchorage Center
Mon 06:31:32 PM 57.7500 -171.6167 68° East 460 529 33,000  Level Anchorage Center
Mon 06:32:32 PM 57.7833 -171.4333 71° East 460 529 33,000  Level Anchorage Center
Mon 06:33:32 PM 57.8333 -171.2000 68° East 470 541 33,000  Level Anchorage Center
Mon 06:34:32 PM 57.8833 -170.9667 68° East 470 541 33,000  Level Anchorage Center
Mon 06:35:32 PM 57.9333 -170.7333 68° East 460 529 33,000  Level Anchorage Center
Mon 06:36:33 PM 57.9833 -170.5000 68° East 470 541 33,000  Level Anchorage Center
Mon 06:37:32 PM 58.0333 -170.2667 68° East 460 529 33,000  Level Anchorage Center
Mon 06:38:32 PM 58.0833 -170.0333 68° East 470 541 33,000  Level Anchorage Center
Mon 06:39:33 PM 58.1333 -169.8167 66° East 460 529 33,000  Level Anchorage Center
Mon 06:40:33 PM 58.1833 -169.5667 69° East 480 552 33,000  Level Anchorage Center
Mon 06:41:33 PM 58.2333 -169.3333 68° East 470 541 33,000  Level Anchorage Center
Mon 06:42:32 PM 58.2833 -169.1167 66° East 450 518 33,000  Level Anchorage Center
Mon 06:43:33 PM 58.3167 -168.8833 75° East 460 529 33,000  Level Anchorage Center
Mon 06:44:33 PM 58.3667 -168.6500 68° East 460 529 33,000  Level Anchorage Center
Mon 06:45:33 PM 58.4167 -168.4333 66° East 460 529 33,000  Level Anchorage Center
Mon 06:46:33 PM 58.4667 -168.2000 68° East 460 529 33,000  Level Anchorage Center
Mon 06:47:31 PM 58.5000 -167.9667 75° East 460 529 33,000  Level Anchorage Center
Mon 06:48:31 PM 58.5500 -167.7333 68° East 450 518 33,000  Level Anchorage Center
Mon 06:49:31 PM 58.5833 -167.5000 75° East 450 518 33,000  Level Anchorage Center
Mon 06:50:31 PM 58.6333 -167.2833 66° East 450 518 33,000  Level Anchorage Center
Mon 06:51:31 PM 58.6833 -167.0333 69° East 460 529 33,000  Level Anchorage Center
Mon 06:52:31 PM 58.7167 -166.8000 75° East 460 529 33,000  Level Anchorage Center
Mon 06:53:33 PM 58.7667 -166.5667 67° East 460 529 33,000  Level Anchorage Center
Mon 06:54:33 PM 58.8000 -166.3333 74° East 450 518 33,000  Level Anchorage Center
Mon 06:55:33 PM 58.8500 -166.1167 66° East 450 518 33,000  Level Anchorage Center
Mon 06:56:32 PM 58.8833 -165.8833 74° East 430 495 33,000  Level Anchorage Center
Mon 06:57:32 PM 58.9167 -165.6500 74° East 440 506 33,000  Level Anchorage Center
Mon 06:58:32 PM 58.9667 -165.4333 66° East 440 506 33,000  Level Anchorage Center
Mon 06:59:32 PM 59.0000 -165.2000 74° East 440 506 33,000  Level Anchorage Center
Mon 07:00:32 PM 59.0333 -164.9667 74° East 440 506 33,000  Level Anchorage Center
Mon 07:01:32 PM 59.0833 -164.7333 67° East 440 506 33,000  Level Anchorage Center
Mon 07:02:32 PM 59.1333 -164.5167 66° East 450 518 33,000  Level Anchorage Center
Mon 07:03:32 PM 59.1667 -164.2833 74° East 460 529 33,000  Level Anchorage Center
Mon 07:04:32 PM 59.2167 -164.0500 67° East 460 529 33,000  Level Anchorage Center
Mon 07:05:32 PM 59.2500 -163.8000 75° East 460 529 33,000  Level Anchorage Center
Mon 07:06:33 PM 59.2833 -163.5500 75° East 460 529 33,000  Level Anchorage Center
Mon 07:07:33 PM 59.3333 -163.3167 67° East 470 541 33,000  Level Anchorage Center
Mon 07:08:32 PM 59.3667 -163.0667 75° East 470 541 33,000  Level Anchorage Center
Mon 07:09:33 PM 59.4000 -162.8167 75° East 470 541 33,000  Level Anchorage Center
Mon 07:10:33 PM 59.4333 -162.6167 72° East 470 541 33,000  Level Anchorage Center
Mon 07:11:33 PM 59.4833 -162.3667 68° East 470 541 33,000  Level Anchorage Center
Mon 07:12:33 PM 59.5167 -162.1167 75° East 480 552 33,000  Level Anchorage Center
Mon 07:13:33 PM 59.5667 -161.8667 68° East 480 552 33,000  Level Anchorage Center
Mon 07:14:33 PM 59.6000 -161.6167 75° East 470 541 33,000  Level Anchorage Center
Mon 07:15:33 PM 59.6500 -161.3667 68° East 480 552 33,000  Level Anchorage Center
Mon 07:16:33 PM 59.6833 -161.1000 76° East 470 541 33,000  Level Anchorage Center
Mon 07:17:33 PM 59.7167 -160.8500 75° East 480 552 33,000  Level Anchorage Center
Mon 07:18:33 PM 59.7667 -160.6000 68° East 480 552 33,000  Level Anchorage Center
Mon 07:19:34 PM 59.8000 -160.3333 76° East 480 552 33,000  Level Anchorage Center
Mon 07:20:34 PM 59.8333 -160.0833 75° East 480 552 33,000  Level Anchorage Center
Mon 07:21:34 PM 59.8667 -159.8167 76° East 480 552 33,000  Level Anchorage Center
Mon 07:22:33 PM 59.9167 -159.5500 69° East 480 552 33,000  Level Anchorage Center
Mon 07:23:34 PM 59.9500 -159.2833 76° East 490 564 33,000  Level Anchorage Center
Mon 07:24:34 PM 59.9833 -159.0333 75° East 480 552 33,000  Level Anchorage Center
Mon 07:25:34 PM 60.0167 -158.7500 77° East 480 552 33,000  Level Anchorage Center
Mon 07:26:34 PM 60.0500 -158.4833 76° East 480 552 33,000  Level Anchorage Center
Mon 07:27:34 PM 60.0833 -158.2333 75° East 480 552 33,000  Level Anchorage Center
Mon 07:28:34 PM 60.1167 -157.9500 77° East 500 575 33,000  Level Anchorage Center
Mon 07:29:34 PM 60.1500 -157.6833 76° East 500 575 33,000  Level Anchorage Center
Mon 07:30:34 PM 60.1833 -157.4167 76° East 500 575 33,000  Level Anchorage Center
Mon 07:31:34 PM 60.2167 -157.1333 77° East 500 575 33,000  Level Anchorage Center
Mon 07:32:35 PM 60.2500 -156.8667 76° East 490 564 33,000  Level Anchorage Center
Mon 07:33:35 PM 60.2833 -156.5833 77° East 500 575 33,000  Level Anchorage Center
Mon 07:34:35 PM 60.3167 -156.3167 76° East 500 575 33,000  Level Anchorage Center
Mon 07:35:35 PM 60.3500 -156.0333 77° East 510 587 33,000  Level Anchorage Center
Mon 07:36:35 PM 60.3833 -155.7500 76° East 500 575 33,000  Level Anchorage Center
Mon 07:37:35 PM 60.4000 -155.4667 83° East 510 587 33,000  Level Anchorage Center
Mon 07:38:35 PM 60.4333 -155.2000 76° East 520 598 33,000  Level Anchorage Center
Mon 07:44:02 PM 60.5250 -153.5840 76° East 517 595 33,000  Level FlightAware
Mon 07:45:42 PM 60.5330 -153.1240 88° East 510 587 33,000  Level FlightAware
Mon 07:46:52 PM 60.5380 -152.7860 88° East 508 585 33,000  Level FlightAware
Mon 07:48:02 PM 60.5430 -152.4490 88° East 509 586 33,000  Level FlightAware
Mon 07:49:22 PM 60.5460 -152.0680 89° East 514 592 33,000  Level FlightAware
Mon 07:50:02 PM 60.5480 -151.8730 89° East 515 593 33,000  Level FlightAware
Mon 07:50:47 PM 60.5490 -151.6470 89° East 516 594 33,000  Level FlightAware
Mon 07:51:32 PM 60.5500 -151.4340 89° East 517 595 33,000  Level FlightAware
Mon 07:52:12 PM 60.5510 -151.2490 89° East 518 596 33,000  Level FlightAware
Mon 07:52:52 PM 60.5510 -151.0450 90° East 521 600 33,000  Level FlightAware
Mon 07:53:37 PM 60.5510 -150.8310 90° East 525 604 33,000  Level FlightAware
Mon 07:54:17 PM 60.5510 -150.6290 90° East 528 608 33,000  Level FlightAware
Mon 07:55:02 PM 60.5500 -150.4070 90° East 530 610 33,000  Level FlightAware
Mon 07:55:42 PM 60.5490 -150.2140 91° East 530 610 33,000  Level FlightAware
Mon 07:56:22 PM 60.5480 -150.0070 90° East 531 611 33,000  Level FlightAware
Mon 07:56:52 PM 60.5470 -149.8590 91° East 532 612 33,000  Level FlightAware
Mon 07:57:32 PM 60.5450 -149.6600 91° East 534 615 33,000  Level FlightAware
Mon 07:58:17 PM 60.5430 -149.4350 91° East 536 617 33,000  Level FlightAware
Mon 07:58:57 PM 60.5400 -149.2350 92° East 537 618 33,000  Level FlightAware
Mon 07:59:42 PM 60.5240 -149.0080 98° East 535 616 33,000  Level FlightAware
Mon 08:00:22 PM 60.5090 -148.8160 99° East 538 619 33,000  Level FlightAware
Mon 08:01:07 PM 60.4920 -148.5820 98° East 539 620 33,000  Level FlightAware
Mon 08:01:47 PM 60.4780 -148.3830 98° East 542 624 33,000  Level FlightAware
Mon 08:02:27 PM 60.4670 -148.2090 97° East 542 624 33,000  Level FlightAware
Mon 08:03:07 PM 60.4560 -148.0380 97° East 542 624 33,000  Level FlightAware
Mon 08:03:47 PM 60.4460 -147.8660 97° East 542 624 33,000  Level FlightAware
Mon 08:04:37 PM 60.4330 -147.6520 97° East 542 624 33,000  Level FlightAware
Mon 08:05:17 PM 60.4230 -147.4800 97° East 542 624 33,000  Level FlightAware
Mon 08:05:57 PM 60.4120 -147.3090 97° East 542 624 33,000  Level FlightAware
Mon 08:06:37 PM 60.4020 -147.1370 97° East 542 624 33,000  Level FlightAware
Mon 08:07:17 PM 60.3910 -146.9660 97° East 542 624 33,000  Level FlightAware
Mon 08:08:07 PM 60.3780 -146.7520 97° East 542 624 33,000  Level FlightAware
Mon 08:08:47 PM 60.3680 -146.5810 97° East 542 624 33,000  Level FlightAware
Mon 08:09:27 PM 60.3580 -146.4100 97° East 542 624 33,000  Level FlightAware
Mon 08:10:07 PM 60.3470 -146.2390 97° East 542 624 33,000  Level FlightAware
Mon 08:10:47 PM 60.3370 -146.0680 97° East 542 624 33,000  Level FlightAware
Mon 08:11:37 PM 60.3240 -145.8540 97° East 542 624 33,000  Level FlightAware
Mon 08:12:38 PM 60.1833 -145.0333 97° East 570 656 33,000  Level Anchorage Center
Mon 08:13:39 PM 60.1500 -144.7167 102° East 580 667 33,000  Level Anchorage Center
Mon 08:14:39 PM 60.1167 -144.4000 102° East 570 656 33,000  Level Anchorage Center
Mon 08:15:39 PM 60.0833 -144.0833 102° East 570 656 33,000  Level Anchorage Center
Mon 08:16:39 PM 60.0333 -143.7667 107° East 580 667 33,000  Level Anchorage Center
Mon 08:17:39 PM 60.0000 -143.4667 102° East 570 656 33,000  Level Anchorage Center
Mon 08:18:39 PM 59.9667 -143.1500 102° East 580 667 33,000  Level Anchorage Center
Mon 08:19:39 PM 59.9333 -142.8500 102° East 580 667 33,000  Level Anchorage Center
Mon 08:20:39 PM 59.9000 -142.5500 102° East 570 656 33,000  Level Anchorage Center
Mon 08:21:40 PM 59.8667 -142.2333 102° East 580 667 33,000  Level Anchorage Center
Mon 08:22:39 PM 59.8167 -141.9333 108° East 580 667 33,000  Level Anchorage Center
Mon 08:23:40 PM 59.7833 -141.6167 102° East 580 667 33,000  Level Anchorage Center
Mon 08:24:40 PM 59.7333 -141.3000 107° East 580 667 33,000  Level Anchorage Center
Mon 08:25:40 PM 59.7000 -140.9833 102° East 580 667 33,000  Level Anchorage Center
Mon 08:26:40 PM 59.6500 -140.6667 107° East 590 679 33,000  Level Anchorage Center
Mon 08:27:40 PM 59.6000 -140.3667 108° East 590 679 33,000  Level Anchorage Center
Mon 08:28:40 PM 59.5667 -140.0500 102° East 590 679 33,000  Level Anchorage Center
Mon 08:29:40 PM 59.5167 -139.7333 107° East 590 679 33,000  Level Anchorage Center
Mon 08:30:40 PM 59.4667 -139.4000 106° East 580 667 33,000  Level Anchorage Center
Mon 08:31:40 PM 59.4333 -139.0833 102° East 590 679 33,000  Level Anchorage Center
Mon 08:32:40 PM 59.4000 -138.7667 102° East 580 667 33,000  Level Anchorage Center
Mon 08:33:41 PM 59.3667 -138.4667 102° East 580 667 33,000  Level Anchorage Center
Mon 08:34:41 PM 59.3333 -138.1500 102° East 580 667 33,000  Level Anchorage Center
Mon 08:35:41 PM 59.2833 -137.8500 108° East 590 679 33,000  Level Anchorage Center
Mon 08:36:41 PM 59.2500 -137.5333 102° East 580 667 33,000  Level Anchorage Center
Mon 08:37:41 PM 59.2167 -137.2333 102° East 590 679 33,000  Level Anchorage Center
Mon 08:38:41 PM 59.1667 -136.9167 107° East 580 667 33,000  Level Anchorage Center
Mon 08:39:41 PM 59.1333 -136.6000 101° East 600 690 33,000  Level Anchorage Center
Mon 08:40:41 PM 59.0833 -136.3000 108° East 590 679 33,000  Level Anchorage Center
Mon 08:41:41 PM 59.0500 -135.9833 101° East 600 690 33,000  Level Anchorage Center
Mon 08:42:41 PM 59.0000 -135.6833 108° East 590 679 33,000  Level Anchorage Center
Mon 08:43:42 PM 58.9500 -135.4000 109° East 590 679 33,000  Level Anchorage Center
Mon 08:44:41 PM 58.9167 -135.0833 101° East 590 679 33,000  Level Anchorage Center
Mon 08:45:41 PM 58.8667 -134.7833 108° East 590 679 33,000  Level Anchorage Center
Mon 08:46:42 PM 58.8167 -134.4833 108° East 580 667 33,000  Level Anchorage Center
Mon 08:47:42 PM 58.7667 -134.1833 108° East 580 667 33,000  Level Anchorage Center
Mon 08:48:42 PM 58.7167 -133.8833 108° East 580 667 33,000  Level Anchorage Center
Mon 08:49:42 PM 58.6667 -133.5833 108° East 580 667 33,000  Level Anchorage Center
Mon 08:50:42 PM 58.6333 -133.3500 105° East 590 679 33,000 64 Level Anchorage Center
Mon 08:53:00 PM 58.5765 -133.0102 108° East  Level FlightAware
Mon 09:00:00 PM 58.2536 -131.2009 110° East  Level FlightAware
Mon 09:01:00 PM 58.2045 -130.9458 110° East  Level FlightAware
Mon 09:02:00 PM 58.1549 -130.6915 110° East  Level FlightAware
Mon 09:03:00 PM 58.1047 -130.4378 110° East  Level FlightAware
Mon 09:04:00 PM 58.0541 -130.1848 111° Southeast  Level FlightAware
Mon 09:05:00 PM 58.0036 -129.9322 110° East  Level FlightAware
Mon 09:06:00 PM 57.9543 -129.6790 110° East  Level FlightAware
Mon 09:07:00 PM 57.9045 -129.4265 110° East  Level FlightAware
Mon 09:08:00 PM 57.8542 -129.1747 110° East  Level FlightAware
Mon 09:09:00 PM 57.8035 -128.9236 111° Southeast  Level FlightAware
Mon 09:10:00 PM 57.7522 -128.6732 111° Southeast  Level FlightAware
Mon 09:11:00 PM 57.7004 -128.4235 111° Southeast  Level FlightAware
Mon 09:12:00 PM 57.6480 -128.1747 113° Southeast  Level FlightAware
Mon 09:13:00 PM 57.5921 -127.9289 113° Southeast  Level FlightAware
Mon 09:14:00 PM 57.5357 -127.6839 113° Southeast  Level FlightAware
Mon 09:15:00 PM 57.4788 -127.4397 113° Southeast  Level FlightAware
Mon 09:16:00 PM 57.4214 -127.1962 114° Southeast  Level FlightAware
Mon 09:17:00 PM 57.3636 -126.9535 114° Southeast  Level FlightAware
Mon 09:18:00 PM 57.3053 -126.7115 114° Southeast  Level FlightAware
Mon 09:19:00 PM 57.2465 -126.4704 114° Southeast  Level FlightAware
Mon 09:20:00 PM 57.1883 -126.2291 114° Southeast  Level FlightAware
Mon 09:21:00 PM 57.1299 -125.9884 114° Southeast  Level FlightAware
Mon 09:21:00 PM 56.8667 -125.0333 115° Southeast 570 656 35,000  Level Edmonton Center
Mon 09:22:00 PM 57.0710 -125.7484 114° Southeast  Level FlightAware
Mon 09:22:00 PM 56.8000 -124.8000 117° Southeast 560 644 35,000  Level Edmonton Center
Mon 09:23:00 PM 57.0117 -125.5092 114° Southeast  Level FlightAware
Mon 09:23:00 PM 56.7333 -124.5000 112° Southeast 560 644 35,000  Level Edmonton Center
Mon 09:24:00 PM 56.9520 -125.2708 115° Southeast  Level FlightAware
Mon 09:24:00 PM 56.6667 -124.2667 117° Southeast 550 633 35,000  Level Edmonton Center
Mon 09:25:00 PM 56.8918 -125.0331 115° Southeast  Level FlightAware
Mon 09:25:00 PM 56.6000 -124.0167 116° Southeast 560 644 35,000  Level Edmonton Center
Mon 09:26:00 PM 56.8320 -124.7955 115° Southeast  Level FlightAware
Mon 09:26:00 PM 56.5333 -123.7667 116° Southeast 560 644 35,000  Level Edmonton Center
Mon 09:27:00 PM 56.4667 -123.5000 114° Southeast 560 644 35,000  Level Edmonton Center
Mon 09:28:00 PM 56.4000 -123.2500 116° Southeast 560 644 35,000  Level Edmonton Center
Mon 09:29:00 PM 56.3167 -122.9833 119° Southeast 560 644 35,000  Level Edmonton Center
Mon 09:30:00 PM 56.2500 -122.7333 116° Southeast 560 644 35,000  Level Edmonton Center
Mon 09:31:00 PM 56.1833 -122.4833 116° Southeast 550 633 35,000  Level Edmonton Center
Mon 09:32:00 PM 56.1167 -122.2667 119° Southeast 550 633 35,000  Level Edmonton Center
Mon 09:33:00 PM 56.0500 -122.0167 115° Southeast 550 633 35,000  Level Edmonton Center
Mon 09:34:00 PM 55.9833 -121.7667 115° Southeast 550 633 35,000  Level Edmonton Center
Mon 09:35:00 PM 55.9167 -121.5167 115° Southeast 550 633 35,000  Level Edmonton Center
Mon 09:36:00 PM 55.8333 -121.2667 121° Southeast 550 633 35,000  Level Edmonton Center
Mon 09:37:00 PM 55.7500 -121.0167 121° Southeast 550 633 35,000  Level Edmonton Center
Mon 09:38:00 PM 55.7000 -120.8000 112° Southeast 550 633 35,000  Level Edmonton Center
Mon 09:39:00 PM 55.6000 -120.5500 125° Southeast 550 633 35,000  Level Edmonton Center
Mon 09:40:00 PM 55.5333 -120.3000 115° Southeast 550 633 35,000  Level Edmonton Center
Mon 09:41:00 PM 55.4667 -120.0667 117° Southeast 540 621 35,000  Level Edmonton Center
Mon 09:42:00 PM 55.3833 -119.8167 120° Southeast 550 633 35,000  Level Edmonton Center
Mon 09:43:00 PM 55.3167 -119.5833 117° Southeast 550 633 35,000  Level Edmonton Center
Mon 09:44:00 PM 55.2333 -119.3667 124° Southeast 550 633 35,000  Level Edmonton Center
Mon 09:45:00 PM 55.1882 -119.1290 108° East  Level FlightAware
Mon 09:45:38 PM 55.1167 -118.9833 108° East 560 644 35,000  Level Edmonton Center
Mon 09:46:38 PM 55.0333 -118.7500 122° Southeast 550 633 35,000  Level Edmonton Center
Mon 09:47:38 PM 54.9667 -118.5500 120° Southeast 540 621 35,000  Level Edmonton Center
Mon 09:48:38 PM 54.8833 -118.3167 122° Southeast 540 621 35,000  Level Edmonton Center
Mon 09:49:38 PM 54.7833 -118.0667 125° Southeast 540 621 35,000  Level Edmonton Center
Mon 09:50:38 PM 54.7333 -117.8667 113° Southeast 540 621 35,000  Level Edmonton Center
Mon 09:51:38 PM 54.6500 -117.6667 126° Southeast 540 621 35,000  Level Edmonton Center
Mon 09:57:22 PM 54.2000 -116.3680 126° Southeast 534 615 35,000  Level FlightAware
Mon 09:58:02 PM 54.1450 -116.2240 123° Southeast 533 613 35,000  Level FlightAware
Mon 09:58:57 PM 54.0710 -116.0340 124° Southeast 532 612 35,000  Level FlightAware
Mon 09:59:37 PM 54.0120 -115.8840 124° Southeast 530 610 35,000  Level FlightAware
Mon 10:00:22 PM 53.9510 -115.7310 124° Southeast 531 611 35,000  Level FlightAware
Mon 10:01:02 PM 53.8970 -115.5930 124° Southeast 530 610 35,000  Level FlightAware
Mon 10:01:47 PM 53.8360 -115.4410 124° Southeast 529 609 35,000  Level FlightAware
Mon 10:02:27 PM 53.7770 -115.2930 124° Southeast 530 610 35,000  Level FlightAware
Mon 10:03:12 PM 53.7160 -115.1430 124° Southeast 529 609 35,000  Level FlightAware
Mon 10:03:47 PM 53.6680 -115.0240 124° Southeast 530 610 35,000  Level FlightAware
Mon 10:04:32 PM 53.6020 -114.8630 125° Southeast 527 606 35,000  Level FlightAware
Mon 10:05:17 PM 53.5390 -114.7100 125° Southeast 527 606 35,000  Level FlightAware
Mon 10:06:12 PM 53.4620 -114.5250 125° Southeast 532 612 35,000  Level FlightAware
Mon 10:06:57 PM 53.3980 -114.3710 125° Southeast 530 610 35,000  Level FlightAware
Mon 10:07:52 PM 53.3270 -114.2020 125° Southeast 528 608 35,000  Level FlightAware
Mon 10:08:32 PM 53.2710 -114.0670 125° Southeast 526 605 35,000  Level FlightAware
Mon 10:09:12 PM 53.2150 -113.9360 125° Southeast 525 604 35,000  Level FlightAware
Mon 10:10:22 PM 53.1050 -113.7180 130° Southeast 528 608 35,000  Level FlightAware
Mon 10:10:57 PM 53.0480 -113.6120 132° Southeast 528 608 35,000  Level FlightAware
Mon 10:11:47 PM 52.9660 -113.4630 132° Southeast 525 604 35,000  Level FlightAware
Mon 10:12:42 PM 52.8770 -113.3000 132° Southeast 524 603 35,000  Level FlightAware
Mon 10:13:22 PM 52.8110 -113.1800 132° Southeast 526 605 35,000  Level FlightAware
Mon 10:14:07 PM 52.7370 -113.0480 133° Southeast 528 608 35,000  Level FlightAware
Mon 10:15:17 PM 52.6220 -112.8400 132° Southeast 525 604 35,000  Level FlightAware
Mon 10:16:27 PM 52.5060 -112.6350 133° Southeast 525 604 35,000  Level FlightAware
Mon 10:17:37 PM 52.3910 -112.4330 133° Southeast 520 598 35,000  Level FlightAware
Mon 10:18:12 PM 52.3340 -112.3320 133° Southeast 520 598 35,000  Level FlightAware
Mon 10:19:02 PM 52.2530 -112.1910 133° Southeast 519 597 35,000  Level FlightAware
Mon 10:19:57 PM 52.1620 -112.0340 133° Southeast 517 595 35,000  Level FlightAware
Mon 10:21:22 PM 52.0210 -111.7920 133° Southeast 515 593 35,000  Level FlightAware
Mon 10:22:02 PM 51.9550 -111.6790 133° Southeast 519 597 35,000  Level FlightAware
Mon 10:22:47 PM 51.8800 -111.5510 133° Southeast 515 593 35,000  Level FlightAware
Mon 10:23:27 PM 51.8160 -111.4450 134° Southeast 515 593 35,000  Level FlightAware
Mon 10:26:37 PM 51.5010 -110.9190 134° Southeast 509 586 35,000  Level FlightAware
Mon 10:27:42 PM 51.3980 -110.7460 134° Southeast 509 586 35,000  Level FlightAware
Mon 10:28:37 PM 51.3060 -110.5960 134° Southeast 510 587 35,000  Level FlightAware
Mon 10:29:17 PM 51.2510 -110.5020 133° Southeast 510 587 35,000  Level FlightAware
Mon 10:30:22 PM 51.1340 -110.3190 136° Southeast 507 583 35,000  Level FlightAware
Mon 10:31:12 PM 51.0640 -110.2050 134° Southeast 507 583 35,000  Level FlightAware
Mon 10:31:52 PM 51.0090 -110.1140 134° Southeast 507 583 35,000  Level FlightAware
Mon 10:33:17 PM 50.8390 -109.8670 137° Southeast 512 589 35,000  Level FlightAware
Mon 10:33:57 PM 50.7790 -109.7820 138° Southeast 512 589 35,000  Level FlightAware
Mon 10:34:37 PM 50.7190 -109.6970 138° Southeast 512 589 35,000  Level FlightAware
Mon 10:35:17 PM 50.6590 -109.6120 138° Southeast 512 589 35,000  Level FlightAware
Mon 10:35:57 PM 50.5990 -109.5270 138° Southeast 512 589 35,000  Level FlightAware
Mon 10:36:47 PM 50.5240 -109.4210 138° Southeast 512 589 35,000  Level FlightAware
Mon 10:37:27 PM 50.4650 -109.3360 137° Southeast 512 589 35,000  Level FlightAware
Mon 10:38:07 PM 50.4050 -109.2520 138° Southeast 512 589 35,000  Level FlightAware
Mon 10:38:47 PM 50.3450 -109.1670 138° Southeast 512 589 35,000  Level FlightAware
Mon 10:39:27 PM 50.2850 -109.0830 138° Southeast 512 589 35,000  Level FlightAware
Mon 10:40:17 PM 50.2100 -108.9770 138° Southeast 512 589 35,000  Level FlightAware
Mon 10:40:57 PM 50.1500 -108.8930 138° Southeast 512 589 35,000  Level FlightAware
Mon 10:41:37 PM 50.0900 -108.8090 138° Southeast 512 589 35,000  Level FlightAware
Mon 10:42:17 PM 50.0310 -108.7250 138° Southeast 512 589 35,000  Level FlightAware
Mon 10:42:38 PM 49.7667 -108.5333 138° Southeast 500 575 35,000  Level Edmonton Center
Mon 10:43:38 PM 49.6667 -108.4000 139° Southeast 500 575 35,000  Level Edmonton Center
Mon 10:44:38 PM 49.5500 -108.2667 143° Southeast 500 575 35,000  Level Edmonton Center
Mon 10:45:38 PM 49.4333 -108.1167 140° Southeast 500 575 35,000  Level Edmonton Center
Mon 10:46:38 PM 49.3500 -107.9833 134° Southeast 500 575 35,000  Level Edmonton Center
Mon 10:47:38 PM 49.2167 -107.8500 147° Southeast 500 575 35,000  Level Edmonton Center
Mon 10:48:38 PM 49.1167 -107.7167 139° Southeast 500 575 35,000  Level Edmonton Center
Mon 10:49:38 PM 49.0000 -107.5833 143° Southeast 500 575 35,000  Level Edmonton Center
Mon 10:50:38 PM 48.9000 -107.4500 139° Southeast 500 575 35,000  Level Edmonton Center
Mon 10:51:07 PM 48.8692 -107.3961 131° Southeast 504 580 35,000  Level Salt Center
Mon 10:52:08 PM 48.7614 -107.2664 142° Southeast 499 574 35,000  Level Salt Center
Mon 10:53:10 PM 48.6522 -107.1378 142° Southeast 499 574 35,000  Level Salt Center
Mon 10:54:11 PM 48.5439 -107.0089 142° Southeast 498 573 35,000  Level Salt Center
Mon 10:55:12 PM 48.4342 -106.8814 142° Southeast 499 574 35,000 341 Level Salt Center
Mon 10:56:14 PM 48.3236 -106.7542 143° Southeast 502 578 35,700 927 Climbing Salt Center
Mon 10:57:15 PM 48.2131 -106.6242 142° Southeast 503 579 36,900 639 Climbing Salt Center
Mon 10:58:16 PM 48.1183 -106.4683 132° Southeast 508 585 37,000 49 Climbing Salt Center
Mon 10:59:18 PM 48.0106 -106.2792 130° Southeast 505 581 37,000  Level Salt Center
Mon 11:00:19 PM 47.9194 -106.1244 131° Southeast 501 577 37,000  Level Salt Center
Mon 11:01:21 PM 47.8300 -105.9683 130° Southeast 499 574 37,000  Level Salt Center
Mon 11:02:22 PM 47.7369 -105.8147 132° Southeast 502 578 37,000  Level Salt Center
Mon 11:03:23 PM 47.6450 -105.6603 131° Southeast 502 578 37,000  Level Salt Center
Mon 11:04:25 PM 47.5519 -105.5061 132° Southeast 504 580 37,000  Level Salt Center
Mon 11:05:26 PM 47.4578 -105.3539 132° Southeast 505 581 37,000  Level Salt Center
Mon 11:06:27 PM 47.3628 -105.1989 132° Southeast 509 586 37,000  Level Salt Center
Mon 11:07:29 PM 47.2494 -105.0136 132° Southeast 511 588 37,000  Level Salt Center
Mon 11:08:30 PM 47.1536 -104.8608 133° Southeast 512 589 37,000  Level Salt Center
Mon 11:09:32 PM 47.0594 -104.7078 132° Southeast 511 588 37,000  Level Salt Center
Mon 11:10:33 PM 46.9647 -104.5567 133° Southeast 509 586 37,000  Level Salt Center
Mon 11:11:34 PM 46.8689 -104.4061 133° Southeast 509 586 37,000  Level Salt Center
Mon 11:12:36 PM 46.7736 -104.2542 132° Southeast 510 587 37,000  Level Salt Center
Mon 11:13:37 PM 46.6781 -104.1061 133° Southeast 506 582 37,000  Level Salt Center
Mon 11:14:38 PM 46.5636 -103.9269 133° Southeast 506 582 37,000  Level Salt Center
Mon 11:15:39 PM 46.4672 -103.7778 133° Southeast 509 586 37,000  Level Salt Center
Mon 11:16:41 PM 46.3697 -103.6272 133° Southeast 510 587 37,000  Level Salt Center
Mon 11:17:42 PM 46.2736 -103.4778 133° Southeast 511 588 37,000  Level Salt Center
Mon 11:18:43 PM 46.1758 -103.3306 134° Southeast 511 588 37,000  Level Salt Center
Mon 11:19:03 PM 46.1383 -103.2758 135° Southeast 510 587 37,000  Level Minneapolis Center
Mon 11:20:04 PM 46.0403 -103.1278 134° Southeast 511 588 37,000  Level Minneapolis Center
Mon 11:21:05 PM 45.9422 -102.9808 134° Southeast 512 589 37,000  Level Minneapolis Center
Mon 11:22:06 PM 45.8453 -102.8342 133° Southeast 510 587 37,000  Level Minneapolis Center
Mon 11:23:07 PM 45.7467 -102.6878 134° Southeast 511 588 37,000  Level Minneapolis Center
Mon 11:24:08 PM 45.6381 -102.5297 134° Southeast 509 586 37,000  Level Minneapolis Center
Mon 11:25:09 PM 45.5389 -102.3858 135° Southeast 509 586 37,000  Level Minneapolis Center
Mon 11:26:10 PM 45.4408 -102.2392 134° Southeast 512 589 37,000  Level Minneapolis Center
Mon 11:27:11 PM 45.3417 -102.0958 135° Southeast 511 588 37,000  Level Minneapolis Center
Mon 11:28:12 PM 45.2425 -101.9508 134° Southeast 512 589 37,000  Level Minneapolis Center
Mon 11:29:13 PM 45.1419 -101.8089 135° Southeast 512 589 37,000  Level Minneapolis Center
Mon 11:30:14 PM 45.0406 -101.6697 136° Southeast 510 587 37,000  Level Minneapolis Center
Mon 11:31:15 PM 44.9339 -101.5369 139° Southeast 511 588 37,000  Level Minneapolis Center
Mon 11:32:16 PM 44.8264 -101.4075 139° Southeast 511 588 37,000  Level Minneapolis Center
Mon 11:33:17 PM 44.6975 -101.2514 139° Southeast 510 587 37,000  Level Minneapolis Center
Mon 11:34:18 PM 44.5903 -101.1211 139° Southeast 512 589 37,000  Level Minneapolis Center
Mon 11:35:19 PM 44.4819 -100.9919 140° Southeast 513 590 37,000  Level Minneapolis Center
Mon 11:36:20 PM 44.3731 -100.8614 139° Southeast 514 592 37,000  Level Minneapolis Center
Mon 11:37:21 PM 44.2650 -100.7322 139° Southeast 515 593 37,000  Level Minneapolis Center
Mon 11:38:22 PM 44.1558 -100.6019 139° Southeast 517 595 37,000  Level Minneapolis Center
Mon 11:39:23 PM 44.0444 -100.4719 140° Southeast 522 601 37,000  Level Minneapolis Center
Mon 11:40:24 PM 43.9361 -100.3450 140° Southeast 516 594 37,000  Level Minneapolis Center
Mon 11:41:25 PM 43.8503 -100.2442 140° Southeast 511 588 37,000  Level Minneapolis Center
Mon 11:42:26 PM 43.7197 -100.0919 140° Southeast 512 589 37,000  Level Minneapolis Center
Mon 11:43:39 PM 43.5881 -99.9400 140° Southeast 514 592 37,000  Level Minneapolis Center
Mon 11:44:40 PM 43.4569 -99.7886 140° Southeast 514 592 37,000  Level Minneapolis Center
Mon 11:45:41 PM 43.3456 -99.6631 141° Southeast 519 597 37,000  Level Minneapolis Center
Mon 11:46:42 PM 43.2339 -99.5364 140° Southeast 521 600 37,000  Level Minneapolis Center
Mon 11:47:43 PM 43.1236 -99.4117 140° Southeast 518 596 37,000  Level Minneapolis Center
Mon 11:48:44 PM 43.0267 -99.3014 140° Southeast 515 593 37,000  Level Minneapolis Center
Mon 11:49:45 PM 42.8933 -99.1542 141° Southeast 513 590 37,000  Level Minneapolis Center
Mon 11:50:46 PM 42.7831 -99.0275 140° Southeast 516 594 37,000  Level Minneapolis Center
Mon 11:51:47 PM 42.6708 -98.9078 142° Southeast 515 593 37,000  Level Minneapolis Center
Mon 11:52:48 PM 42.5586 -98.7828 141° Southeast 517 595 37,000  Level Minneapolis Center
Mon 11:53:49 PM 42.4475 -98.6583 140° Southeast 518 596 37,000  Level Minneapolis Center
Mon 11:54:50 PM 42.3417 -98.5211 136° Southeast 523 602 37,000  Level Minneapolis Center
Mon 11:55:51 PM 42.2358 -98.3836 136° Southeast 525 604 37,000  Level Minneapolis Center
Mon 11:56:52 PM 42.1286 -98.2458 136° Southeast 529 609 37,000  Level Minneapolis Center
Mon 11:57:53 PM 42.0139 -98.0981 136° Southeast 529 609 37,000  Level Minneapolis Center
Mon 11:58:54 PM 41.9069 -97.9619 137° Southeast 530 610 37,000  Level Minneapolis Center
Mon 11:59:55 PM 41.7997 -97.8275 137° Southeast 530 610 37,000  Level Minneapolis Center
Tue 12:00:56 AM 41.6922 -97.6917 137° Southeast 531 611 37,000  Level Minneapolis Center
Tue 12:01:57 AM 41.5844 -97.5553 137° Southeast 533 613 37,000  Level Minneapolis Center
Tue 12:03:10 AM 41.4767 -97.4217 137° Southeast 531 611 37,000  Level Minneapolis Center
Tue 12:04:11 AM 41.3456 -97.2592 137° Southeast 536 617 37,000  Level Minneapolis Center
Tue 12:05:12 AM 41.2364 -97.1228 137° Southeast 539 620 37,000  Level Minneapolis Center
Tue 12:06:13 AM 41.1264 -96.9889 137° Southeast 540 621 37,000  Level Minneapolis Center
Tue 12:07:26 AM 40.9950 -96.8281 137° Southeast 540 621 37,000  Level Minneapolis Center
Tue 12:08:27 AM 40.8625 -96.6672 137° Southeast 540 621 37,000  Level Minneapolis Center
Tue 12:14:32 AM 40.3520 -96.0260 137° Southeast 540 621 37,000  Level FlightAware
Tue 12:15:17 AM 40.2660 -95.9200 137° Southeast 538 619 37,000  Level FlightAware
Tue 12:15:57 AM 40.1900 -95.8270 137° Southeast 537 618 37,000  Level FlightAware
Tue 12:16:37 AM 40.1120 -95.7310 137° Southeast 540 621 37,000  Level FlightAware
Tue 12:17:17 AM 40.0450 -95.6490 137° Southeast 543 625 37,000  Level FlightAware
Tue 12:18:02 AM 39.9750 -95.5640 137° Southeast 544 626 37,000  Level FlightAware
Tue 12:18:47 AM 39.8760 -95.4440 137° Southeast 546 628 37,000  Level FlightAware
Tue 12:19:22 AM 39.8230 -95.3800 137° Southeast 548 631 37,000  Level FlightAware
Tue 12:20:12 AM 39.7500 -95.2910 137° Southeast 550 633 37,000  Level FlightAware
Tue 12:20:52 AM 39.6910 -95.2210 138° Southeast 549 632 37,000  Level FlightAware
Tue 12:21:32 AM 39.6200 -95.1350 137° Southeast 547 629 37,000  Level FlightAware
Tue 12:22:17 AM 39.5490 -95.0510 138° Southeast 550 633 37,000  Level FlightAware
Tue 12:22:57 AM 39.4450 -94.9270 137° Southeast 555 639 37,000  Level FlightAware
Tue 12:23:42 AM 39.3360 -94.7970 137° Southeast 555 639 37,000  Level FlightAware
Tue 12:24:22 AM 39.2400 -94.6810 137° Southeast 552 635 37,000  Level FlightAware
Tue 12:25:02 AM 39.0350 -94.4200 135° Southeast 530 610 37,000  Level FlightAware
Tue 12:25:47 AM 38.9540 -94.3190 136° Southeast 526 605 37,000  Level FlightAware
Tue 12:26:27 AM 38.8840 -94.2310 136° Southeast 524 603 37,000  Level FlightAware
Tue 12:27:12 AM 38.8090 -94.1380 136° Southeast 525 604 37,000  Level FlightAware
Tue 12:27:52 AM 38.7370 -94.0490 136° Southeast 528 608 37,000  Level FlightAware
Tue 12:28:32 AM 38.6690 -93.9650 136° Southeast 532 612 37,000  Level FlightAware
Tue 12:29:17 AM 38.5860 -93.8620 136° Southeast 533 613 37,000  Level FlightAware
Tue 12:29:57 AM 38.5150 -93.7750 136° Southeast 531 611 37,000  Level FlightAware
Tue 12:30:37 AM 38.4450 -93.6880 136° Southeast 529 609 37,000  Level FlightAware
Tue 12:31:17 AM 38.3760 -93.6040 136° Southeast 529 609 37,000  Level FlightAware
Tue 12:32:02 AM 38.2950 -93.5060 136° Southeast 529 609 37,000  Level FlightAware
Tue 12:32:57 AM 38.2970 -93.5080 322° Northwest 529 609 37,000  Level FlightAware
Tue 12:33:42 AM 38.1280 -93.3030 136° Southeast 536 617 37,000  Level FlightAware
Tue 12:35:02 AM 37.9830 -93.1260 136° Southeast 536 617 37,000  Level FlightAware
Tue 12:36:02 AM 38.0120 -93.1620 316° Northwest 543 625 37,000  Level FlightAware
Tue 12:36:42 AM 37.9510 -93.0870 136° Southeast 543 625 37,000  Level FlightAware
Tue 12:37:27 AM 37.7130 -92.8040 137° Southeast 546 628 37,000  Level FlightAware
Tue 12:38:07 AM 37.6510 -92.7290 136° Southeast 546 628 37,000  Level FlightAware
Tue 12:38:47 AM 37.5900 -92.6530 135° Southeast 546 628 37,000  Level FlightAware
Tue 12:39:27 AM 37.5280 -92.5780 136° Southeast 546 628 37,000  Level FlightAware
Tue 12:40:07 AM 37.4660 -92.5030 136° Southeast 546 628 37,000  Level FlightAware
Tue 12:41:10 AM 37.2958 -92.3175 136° Southeast 545 627 37,000  Level Memphis Center
Tue 12:42:10 AM 37.1853 -92.1847 136° Southeast 532 612 37,000  Level Memphis Center
Tue 12:43:10 AM 37.0747 -92.0547 137° Southeast 537 618 37,000  Level Memphis Center
Tue 12:44:10 AM 36.9575 -91.9275 139° Southeast 542 624 37,000  Level Memphis Center
Tue 12:45:10 AM 36.8228 -91.8706 161° South 511 588 37,000  Level Memphis Center
Tue 12:46:10 AM 36.6953 -91.9094 194° South 449 517 37,000  Level Memphis Center
Tue 12:47:10 AM 36.5819 -91.9669 202° Southwest 436 502 37,000 -100 Level Memphis Center
Tue 12:48:10 AM 36.4644 -92.0214 200° South 445 512 36,800 -1,250 Descending Memphis Center
Tue 12:49:10 AM 36.3292 -91.9978 172° South 461 531 34,500 -1,800 Descending Memphis Center
Tue 12:50:10 AM 36.2247 -91.8542 132° Southeast 476 548 33,200 -1,900 Descending Memphis Center
Tue 12:51:10 AM 36.1244 -91.7008 129° Southeast 518 596 30,700 -2,350 Descending Memphis Center
Tue 12:52:10 AM 36.0278 -91.5581 130° Southeast 532 612 28,500 -2,050 Descending Memphis Center
Tue 12:53:10 AM 35.9311 -91.4208 131° Southeast 537 618 26,600 -1,650 Descending Memphis Center
Tue 12:54:10 AM 35.8425 -91.2917 130° Southeast 517 595 25,200 -2,100 Descending Memphis Center
Tue 12:55:10 AM 35.7639 -91.1758 130° Southeast 480 552 22,400 -2,150 Descending Memphis Center
Tue 12:56:10 AM 35.7019 -91.0881 131° Southeast 448 516 20,900 -1,750 Descending Memphis Center
Tue 12:57:10 AM 35.6192 -90.9597 128° Southeast 412 474 18,900 -1,850 Descending Memphis Center
Tue 12:58:10 AM 35.5467 -90.8597 132° Southeast 400 460 17,200 -1,700 Descending Memphis Center
Tue 12:59:10 AM 35.4739 -90.7522 130° Southeast 405 466 15,500 -1,400 Descending Memphis Center
Tue 01:00:10 AM 35.4117 -90.6475 126° Southeast 405 466 14,400 -1,400 Descending Memphis Center
Tue 01:01:10 AM 35.3722 -90.5403 114° Southeast 358 412 12,700 -1,500 Descending Memphis Center
Tue 01:02:10 AM 35.3244 -90.4461 122° Southeast 334 384 11,400 -1,100 Descending Memphis Center
Tue 01:03:10 AM 35.2764 -90.3722 129° Southeast 319 367 10,500 -700 Descending Memphis Center
Tue 01:04:10 AM 35.2200 -90.2883 129° Southeast 313 360 10,000 -250 Descending Memphis Center
Tue 01:05:10 AM 35.1658 -90.2072 129° Southeast 308 354 10,000 -350 Level Memphis Center
Tue 01:06:10 AM 35.1178 -90.1336 129° Southeast 300 345 9,300 -1,150 Descending Memphis Center
Tue 01:07:10 AM 35.0778 -90.0578 123° Southeast 274 315 7,700 -1,568 Descending Memphis Center
Tue 01:07:38 AM 35.0667 -90.0167 108° East 253 291 7,000 -1,159 Descending KMEM
Tue 01:08:38 AM 35.0333 -89.9333 116° Southeast 240 276 6,000 -1,200 Descending KMEM
Tue 01:09:38 AM 34.9833 -89.8833 141° Southeast 208 239 4,600 -1,600 Descending KMEM
Tue 01:10:38 AM 34.9333 -89.8500 151° Southeast 203 234 2,800 -1,289 Descending KMEM
Tue 01:11:39 AM 34.8833 -89.8667 195° South 186 214 2,000 -390 Descending KMEM
Tue 01:12:41 AM 34.9000 -89.9167 292° West 193 222 2,000  Level KMEM
Tue 01:13:38 AM 34.9333 -89.9667 309° West 201 231 2,000 -462 Level KMEM
Tue 01:14:38 AM 34.9833 -89.9667 360° North 176 203 1,100 -900 Descending KMEM
Tue 01:16:00 AM 35.0333 -89.9667 316° Northwest  Level FlightAware
Tue 01:23:00 AM 35.0424 -89.9767 316° Northwest  Level Estimated
Tue 01:24:00 AM 35.0424 -89.9767 316° Northwest  Level Estimated
Tue 01:25:00 AM 35.0424 -89.9767 316° Northwest  Level Estimated
Tue 01:26:00 AM 35.0424 -89.9767 316° Northwest  Level Estimated
Tue 01:27:00 AM 35.0424 -89.9767 316° Northwest  Level Estimated
Tue 01:28:00 AM 35.0424 -89.9767 316° Northwest  Level Estimated
Tue 01:29:00 AM 35.0424 -89.9767 316° Northwest  Level Estimated

Login

Don't have an account? Register now (free) for customized features, flight alerts, and more!